createdAt,value
2023-05-19T00:00:07.075Z,16.61
2023-05-19T00:02:39.823Z,16.61
2023-05-19T00:05:10.465Z,16.64
2023-05-19T00:07:39.512Z,16.65
2023-05-19T00:10:08.233Z,16.65
2023-05-19T00:12:36.785Z,16.62
2023-05-19T00:15:07.491Z,16.61
2023-05-19T00:17:35.029Z,16.59
2023-05-19T00:20:07.535Z,16.56
2023-05-19T00:22:35.127Z,16.54
2023-05-19T00:25:02.699Z,16.53
2023-05-19T00:27:31.194Z,16.54
2023-05-19T00:29:58.465Z,16.54
2023-05-19T00:32:27.195Z,16.53
2023-05-19T00:34:54.597Z,16.53
2023-05-19T00:37:22.886Z,16.52
2023-05-19T00:39:50.387Z,16.52
2023-05-19T00:42:17.909Z,16.49
2023-05-19T00:44:45.226Z,16.48
2023-05-19T00:47:13.039Z,16.46
2023-05-19T00:49:41.702Z,16.43
2023-05-19T00:52:09.414Z,16.40
2023-05-19T00:54:37.023Z,16.42
2023-05-19T00:57:04.922Z,16.42
2023-05-19T00:59:32.811Z,16.40
2023-05-19T01:02:00.345Z,16.38
2023-05-19T01:04:27.897Z,16.34
2023-05-19T01:06:57.335Z,16.32
2023-05-19T01:09:25.067Z,16.27
2023-05-19T01:11:52.690Z,16.22
2023-05-19T01:14:21.649Z,16.17
2023-05-19T01:16:55.015Z,16.10
2023-05-19T01:19:47.272Z,16.05
2023-05-19T01:22:32.233Z,16.00
2023-05-19T01:25:17.785Z,15.94
2023-05-19T01:28:12.735Z,15.91
2023-05-19T01:30:43.321Z,15.86
2023-05-19T01:33:14.407Z,15.83
2023-05-19T01:35:43.558Z,15.79
2023-05-19T01:38:12.947Z,15.75
2023-05-19T01:40:42.488Z,15.75
2023-05-19T01:43:12.010Z,15.74
2023-05-19T01:45:41.918Z,15.73
2023-05-19T01:48:11.185Z,15.73
2023-05-19T01:50:40.079Z,15.70
2023-05-19T01:53:07.638Z,15.71
2023-05-19T01:55:36.242Z,15.71
2023-05-19T01:58:15.227Z,15.71
2023-05-19T02:00:57.069Z,15.72
2023-05-19T02:03:40.644Z,15.76
2023-05-19T02:06:31.384Z,15.79
2023-05-19T02:09:04.414Z,15.69
2023-05-19T02:11:38.013Z,15.67
2023-05-19T02:14:12.850Z,15.59
2023-05-19T02:16:46.541Z,15.48
2023-05-19T02:19:22.608Z,15.38
2023-05-19T02:21:50.343Z,15.31
2023-05-19T02:24:18.436Z,15.22
2023-05-19T02:26:45.927Z,15.16
2023-05-19T02:29:13.487Z,15.05
2023-05-19T02:31:42.252Z,14.93
2023-05-19T02:34:09.688Z,14.79
2023-05-19T02:36:41.132Z,14.66
2023-05-19T02:39:09.625Z,14.62
2023-05-19T02:41:36.941Z,14.44
2023-05-19T02:44:05.082Z,14.29
2023-05-19T02:46:33.174Z,14.18
2023-05-19T02:49:02.207Z,14.10
2023-05-19T02:51:29.558Z,14.04
2023-05-19T02:53:56.956Z,13.97
2023-05-19T02:56:24.799Z,13.90
2023-05-19T02:58:52.887Z,13.82
2023-05-19T03:01:22.252Z,13.78
2023-05-19T03:03:49.892Z,13.70
2023-05-19T03:06:18.965Z,13.68
2023-05-19T03:08:46.343Z,13.68
2023-05-19T03:11:13.772Z,13.64
2023-05-19T03:13:41.194Z,13.59
2023-05-19T03:16:08.771Z,13.58
2023-05-19T03:18:36.502Z,13.56
2023-05-19T03:21:04.178Z,13.57
2023-05-19T03:23:32.956Z,13.55
2023-05-19T03:26:00.287Z,13.53
2023-05-19T03:28:27.712Z,13.54
2023-05-19T03:30:55.361Z,13.55
2023-05-19T03:33:28.230Z,13.57
2023-05-19T03:35:57.082Z,13.59
2023-05-19T03:38:24.747Z,13.61
2023-05-19T03:40:59.262Z,13.60
2023-05-19T03:43:26.711Z,13.59
2023-05-19T03:46:02.372Z,13.55
2023-05-19T03:49:02.212Z,13.46
2023-05-19T03:51:52.732Z,13.41
2023-05-19T03:54:35.832Z,13.39
2023-05-19T03:57:05.357Z,13.37
2023-05-19T03:59:33.267Z,13.38
2023-05-19T04:02:00.686Z,13.41
2023-05-19T04:04:29.099Z,13.39
2023-05-19T04:06:56.618Z,13.38
2023-05-19T04:09:26.763Z,13.40
2023-05-19T04:11:55.719Z,13.40
2023-05-19T04:14:26.691Z,13.43
2023-05-19T04:16:54.427Z,13.45
2023-05-19T04:19:21.854Z,13.47
2023-05-19T04:21:49.713Z,13.47
2023-05-19T04:24:17.350Z,13.48
2023-05-19T04:26:47.302Z,13.50
2023-05-19T04:29:18.330Z,13.47
2023-05-19T04:31:47.678Z,13.40
2023-05-19T04:34:15.116Z,13.37
2023-05-19T04:36:42.778Z,13.36
2023-05-19T04:39:12.411Z,13.36
2023-05-19T04:41:44.911Z,13.35
2023-05-19T04:44:13.700Z,13.36
2023-05-19T04:46:42.876Z,13.36
2023-05-19T04:49:14.900Z,13.41
2023-05-19T04:51:42.526Z,13.45
2023-05-19T04:54:10.337Z,13.47
2023-05-19T04:56:38.190Z,13.47
2023-05-19T04:59:07.028Z,13.44
2023-05-19T05:01:34.800Z,13.39
2023-05-19T05:04:02.990Z,13.35
2023-05-19T05:06:32.921Z,13.31
2023-05-19T05:09:00.837Z,13.30
2023-05-19T05:11:29.646Z,13.25
2023-05-19T05:14:00.379Z,13.24
2023-05-19T05:16:30.223Z,13.23
2023-05-19T05:18:59.690Z,13.21
2023-05-19T05:21:28.491Z,13.22
2023-05-19T05:23:57.974Z,13.22
2023-05-19T05:26:33.429Z,13.21
2023-05-19T05:29:02.000Z,13.17
2023-05-19T05:31:30.090Z,13.13
2023-05-19T05:33:59.024Z,13.09
2023-05-19T05:36:31.612Z,13.03
2023-05-19T05:39:02.968Z,13.00
2023-05-19T05:41:35.394Z,13.01
2023-05-19T05:44:08.455Z,13.02
2023-05-19T05:46:35.902Z,13.02
2023-05-19T05:49:04.547Z,13.01
2023-05-19T05:51:33.135Z,13.01
2023-05-19T05:54:03.159Z,13.03
2023-05-19T05:56:38.203Z,13.02
2023-05-19T05:59:08.506Z,12.96
2023-05-19T06:01:36.875Z,12.94
2023-05-19T06:04:06.924Z,12.92
2023-05-19T06:06:36.115Z,12.93
2023-05-19T06:09:05.606Z,12.91
2023-05-19T06:11:33.125Z,12.88
2023-05-19T06:14:01.105Z,12.90
2023-05-19T06:17:03.950Z,12.91
2023-05-19T06:19:32.028Z,12.90
2023-05-19T06:21:59.399Z,12.93
2023-05-19T06:24:28.230Z,12.91
2023-05-19T06:26:55.798Z,12.95
2023-05-19T06:29:23.126Z,12.94
2023-05-19T06:31:52.167Z,12.94
2023-05-19T06:34:21.118Z,12.92
2023-05-19T06:36:48.564Z,12.92
2023-05-19T06:39:17.093Z,12.91
2023-05-19T06:41:45.833Z,12.90
2023-05-19T06:44:25.943Z,12.90
2023-05-19T06:46:53.473Z,12.92
2023-05-19T06:49:21.154Z,12.96
2023-05-19T06:51:49.422Z,13.05
2023-05-19T06:54:16.844Z,13.10
2023-05-19T06:56:45.817Z,13.16
2023-05-19T06:59:13.841Z,13.20
2023-05-19T07:01:41.343Z,13.24
2023-05-19T07:04:08.944Z,13.31
2023-05-19T07:06:36.415Z,13.41
2023-05-19T07:09:05.633Z,13.50
2023-05-19T07:11:33.717Z,13.59
2023-05-19T07:14:02.616Z,13.66
2023-05-19T07:16:32.535Z,13.76
2023-05-19T07:19:00.354Z,13.79
2023-05-19T07:21:27.803Z,13.89
2023-05-19T07:23:55.209Z,13.99
2023-05-19T07:26:22.781Z,14.07
2023-05-19T07:28:50.292Z,14.16
2023-05-19T07:31:19.564Z,14.24
2023-05-19T07:33:47.039Z,14.34
2023-05-19T07:36:14.735Z,14.41
2023-05-19T07:38:42.313Z,14.47
2023-05-19T07:41:09.859Z,14.53
2023-05-19T07:43:37.153Z,14.60
2023-05-19T07:46:06.188Z,14.72
2023-05-19T07:48:35.120Z,14.73
2023-05-19T07:51:02.982Z,14.82
2023-05-19T07:53:30.422Z,14.85
2023-05-19T07:55:58.830Z,14.87
2023-05-19T07:58:26.910Z,14.88
2023-05-19T08:00:56.851Z,14.89
2023-05-19T08:03:24.493Z,14.92
2023-05-19T08:05:53.735Z,14.96
2023-05-19T08:08:23.370Z,14.96
2023-05-19T08:10:50.828Z,14.91
2023-05-19T08:13:18.215Z,14.86
2023-05-19T08:15:45.742Z,14.86
2023-05-19T08:18:13.413Z,14.84
2023-05-19T08:20:41.044Z,14.87
2023-05-19T08:23:10.015Z,14.89
2023-05-19T08:25:37.332Z,14.95
2023-05-19T08:28:04.993Z,15.01
2023-05-19T08:30:32.572Z,15.12
2023-05-19T08:33:00.337Z,15.27
2023-05-19T08:35:27.730Z,15.40
2023-05-19T08:37:55.226Z,15.54
2023-05-19T08:40:24.259Z,15.70
2023-05-19T08:42:51.898Z,15.82
2023-05-19T08:45:19.503Z,15.95
2023-05-19T08:47:47.599Z,16.08
2023-05-19T08:50:21.454Z,16.17
2023-05-19T08:52:53.623Z,16.23
2023-05-19T08:58:22.834Z,16.64
2023-05-19T09:00:51.430Z,17.00
2023-05-19T09:05:51.452Z,17.83
2023-05-19T09:08:19.050Z,18.23
2023-05-19T09:10:47.857Z,18.55
2023-05-19T09:13:15.265Z,18.64
2023-05-19T09:15:44.760Z,18.67
2023-05-19T09:18:14.480Z,18.74
2023-05-19T09:20:43.016Z,18.98
2023-05-19T09:23:14.131Z,19.21
2023-05-19T09:25:49.412Z,19.45
2023-05-19T09:28:24.142Z,19.59
2023-05-19T09:30:59.302Z,19.76
2023-05-19T09:33:27.119Z,19.92
2023-05-19T09:35:55.601Z,20.07
2023-05-19T09:38:24.495Z,20.18
2023-05-19T09:40:56.601Z,20.35
2023-05-19T09:43:24.030Z,20.34
2023-05-19T09:45:55.843Z,20.20
2023-05-19T09:48:26.167Z,20.08
2023-05-19T09:50:54.721Z,20.07
2023-05-19T09:53:22.807Z,20.13
2023-05-19T09:55:57.696Z,20.24
2023-05-19T09:58:26.590Z,20.31
2023-05-19T10:00:57.132Z,20.38
2023-05-19T10:03:26.415Z,20.41
2023-05-19T10:05:54.115Z,20.45
2023-05-19T10:08:24.163Z,20.57
2023-05-19T10:10:53.520Z,20.62
2023-05-19T10:13:22.222Z,20.64
2023-05-19T10:15:58.373Z,20.54
2023-05-19T10:18:29.690Z,20.49
2023-05-19T10:20:59.234Z,20.39
2023-05-19T10:23:26.778Z,20.30
2023-05-19T10:26:00.138Z,20.26
2023-05-19T10:28:35.959Z,20.25
2023-05-19T10:31:06.883Z,20.20
2023-05-19T10:33:47.416Z,20.21
2023-05-19T10:36:33.135Z,20.38
2023-05-19T10:39:06.414Z,20.52
2023-05-19T10:41:45.101Z,20.54
2023-05-19T10:44:23.468Z,20.48
2023-05-19T10:46:51.703Z,20.54
2023-05-19T10:49:25.292Z,20.58
2023-05-19T10:51:56.820Z,20.55
2023-05-19T10:54:43.630Z,20.72
2023-05-19T10:57:17.125Z,20.73
2023-05-19T10:59:45.140Z,20.70
2023-05-19T11:02:42.152Z,20.76
2023-05-19T11:05:11.318Z,20.74
2023-05-19T11:07:42.528Z,20.75
2023-05-19T11:10:10.860Z,20.84
2023-05-19T11:12:45.125Z,20.88
2023-05-19T11:15:14.431Z,20.78
2023-05-19T11:17:45.299Z,20.76
2023-05-19T11:20:22.698Z,20.82
2023-05-19T11:23:04.773Z,20.82
2023-05-19T11:25:47.101Z,20.81
2023-05-19T11:28:19.883Z,20.81
2023-05-19T11:30:52.135Z,20.86
2023-05-19T11:33:21.107Z,20.68
2023-05-19T11:35:50.541Z,20.48
2023-05-19T11:38:19.403Z,20.34
2023-05-19T11:40:48.557Z,20.32
2023-05-19T11:43:17.319Z,20.27
2023-05-19T11:45:45.980Z,20.27
2023-05-19T11:48:13.590Z,20.21
2023-05-19T11:50:41.774Z,20.15
2023-05-19T11:53:13.378Z,20.13
2023-05-19T11:55:44.536Z,20.06
2023-05-19T11:58:12.193Z,20.03
2023-05-19T12:00:41.954Z,20.08
2023-05-19T12:03:09.944Z,20.16
2023-05-19T12:05:42.956Z,20.23
2023-05-19T12:08:11.336Z,20.31
2023-05-19T12:10:39.761Z,20.49
2023-05-19T12:13:10.566Z,20.52
2023-05-19T12:15:39.030Z,20.50
2023-05-19T12:18:08.650Z,20.51
2023-05-19T12:20:36.596Z,20.50
2023-05-19T12:23:04.658Z,20.44
2023-05-19T12:25:32.672Z,20.39
2023-05-19T12:28:03.199Z,20.38
2023-05-19T12:30:33.020Z,20.40
2023-05-19T12:33:02.964Z,20.40
2023-05-19T12:35:34.235Z,20.40
2023-05-19T12:38:06.673Z,20.36
2023-05-19T12:40:35.797Z,20.19
2023-05-19T12:43:04.188Z,20.05
2023-05-19T12:45:34.790Z,19.88
2023-05-19T12:48:04.432Z,19.85
2023-05-19T12:50:34.553Z,19.92
2023-05-19T12:53:02.685Z,19.97
2023-05-19T12:55:30.527Z,20.02
2023-05-19T12:57:58.477Z,20.06
2023-05-19T13:00:30.974Z,20.07
2023-05-19T13:03:01.042Z,20.09
2023-05-19T13:05:29.384Z,20.16
2023-05-19T13:08:00.424Z,20.24
2023-05-19T13:10:28.894Z,20.36
2023-05-19T13:12:56.808Z,20.55
2023-05-19T13:15:26.477Z,20.71
2023-05-19T13:17:55.197Z,20.74
2023-05-19T13:20:22.611Z,20.72
2023-05-19T13:22:50.675Z,20.65
2023-05-19T13:25:19.655Z,20.55
2023-05-19T13:27:48.415Z,20.57
2023-05-19T13:30:19.331Z,20.72
2023-05-19T13:32:46.982Z,20.83
2023-05-19T13:35:16.625Z,20.95
2023-05-19T13:37:44.527Z,21.01
2023-05-19T13:40:13.565Z,21.02
2023-05-19T13:42:42.338Z,20.98
2023-05-19T13:45:10.445Z,20.84
2023-05-19T13:47:38.866Z,20.76
2023-05-19T13:50:07.747Z,20.68
2023-05-19T13:52:35.050Z,20.61
2023-05-19T13:55:02.637Z,20.51
2023-05-19T13:57:31.337Z,20.39
2023-05-19T14:00:03.450Z,20.24
2023-05-19T14:02:40.891Z,20.24
2023-05-19T14:05:09.560Z,20.36
2023-05-19T14:07:37.240Z,20.48
2023-05-19T14:10:06.106Z,20.58
2023-05-19T14:12:39.754Z,20.49
2023-05-19T14:15:16.239Z,20.28
2023-05-19T14:17:43.677Z,20.08
2023-05-19T14:20:12.282Z,20.01
2023-05-19T14:22:39.875Z,20.05
2023-05-19T14:25:08.549Z,20.08
2023-05-19T14:27:35.996Z,20.11
2023-05-19T14:30:03.653Z,20.12
2023-05-19T14:32:33.842Z,20.18
2023-05-19T14:35:01.424Z,20.19
2023-05-19T14:37:32.430Z,20.29
2023-05-19T14:40:00.196Z,20.29
2023-05-19T14:42:27.675Z,20.28
2023-05-19T14:44:55.143Z,20.36
2023-05-19T14:47:22.586Z,20.45
2023-05-19T14:49:51.611Z,20.56
2023-05-19T14:52:19.042Z,20.64
2023-05-19T14:54:46.737Z,20.71
2023-05-19T14:57:14.420Z,20.76
2023-05-19T14:59:42.050Z,20.83
2023-05-19T15:02:09.492Z,20.89
2023-05-19T15:04:36.934Z,20.96
2023-05-19T15:07:10.478Z,21.08
2023-05-19T15:09:38.516Z,21.25
2023-05-19T15:12:06.343Z,21.44
2023-05-19T15:14:34.094Z,21.56
2023-05-19T15:17:01.470Z,21.75
2023-05-19T15:19:29.105Z,21.85
2023-05-19T15:21:56.662Z,21.91
2023-05-19T15:24:25.987Z,21.84
2023-05-19T15:26:54.426Z,21.80
2023-05-19T15:29:21.781Z,21.75
2023-05-19T15:31:51.023Z,21.62
2023-05-19T15:34:18.636Z,21.28
2023-05-19T15:36:46.150Z,20.91
2023-05-19T15:39:13.777Z,20.57
2023-05-19T15:41:42.766Z,20.33
2023-05-19T15:44:10.189Z,20.14
2023-05-19T15:46:39.097Z,19.95
2023-05-19T15:49:06.499Z,19.72
2023-05-19T15:51:34.245Z,19.50
2023-05-19T15:54:01.600Z,19.30
2023-05-19T15:56:29.177Z,19.18
2023-05-19T15:58:58.034Z,19.12
2023-05-19T16:01:26.581Z,19.01
2023-05-19T16:03:54.457Z,18.88
2023-05-19T16:06:22.216Z,18.81
2023-05-19T16:08:49.840Z,18.77
2023-05-19T16:11:18.393Z,18.76
2023-05-19T16:13:45.855Z,18.78
2023-05-19T16:16:14.783Z,18.76
2023-05-19T16:18:44.287Z,18.75
2023-05-19T16:21:11.934Z,18.78
2023-05-19T16:23:39.500Z,18.77
2023-05-19T16:26:06.816Z,18.75
2023-05-19T16:28:34.286Z,18.73
2023-05-19T16:31:01.780Z,18.71
2023-05-19T16:33:30.750Z,18.69
2023-05-19T16:35:58.411Z,18.60
2023-05-19T16:38:26.837Z,18.51
2023-05-19T16:40:54.171Z,18.49
2023-05-19T16:43:21.651Z,18.48
2023-05-19T16:45:49.148Z,18.50
2023-05-19T16:48:16.675Z,18.49
2023-05-19T16:50:48.063Z,18.41
2023-05-19T16:53:15.610Z,18.33
2023-05-19T16:55:42.923Z,18.29
2023-05-19T16:58:11.832Z,18.21
2023-05-19T17:00:39.422Z,18.16
2023-05-19T17:03:07.099Z,18.09
2023-05-19T17:05:36.305Z,17.97
2023-05-19T17:08:05.583Z,17.88
2023-05-19T17:10:33.213Z,17.78
2023-05-19T17:13:00.715Z,17.72
2023-05-19T17:15:28.022Z,17.62
2023-05-19T17:17:55.458Z,17.51
2023-05-19T17:20:22.743Z,17.42
2023-05-19T17:22:50.266Z,17.36
2023-05-19T17:25:19.054Z,17.30
2023-05-19T17:27:46.541Z,17.23
2023-05-19T17:30:14.181Z,17.18
2023-05-19T17:32:42.104Z,17.06
2023-05-19T17:35:10.129Z,16.98
2023-05-19T17:37:37.792Z,16.89
2023-05-19T17:40:06.298Z,16.80
2023-05-19T17:42:35.147Z,16.72
2023-05-19T17:45:05.720Z,16.64
2023-05-19T17:47:33.321Z,16.56
2023-05-19T17:50:00.759Z,16.50
2023-05-19T17:52:29.294Z,16.38
2023-05-19T17:54:57.265Z,16.26
2023-05-19T17:57:26.552Z,16.17
2023-05-19T17:59:56.217Z,16.11
2023-05-19T18:02:24.249Z,16.07
2023-05-19T18:04:52.334Z,16.02
2023-05-19T18:07:21.841Z,15.96
2023-05-19T18:09:51.576Z,15.85
2023-05-19T18:12:19.030Z,15.77
2023-05-19T18:14:46.405Z,15.68
2023-05-19T18:17:15.404Z,15.61
2023-05-19T18:19:42.803Z,15.51
2023-05-19T18:22:13.025Z,15.43
2023-05-19T18:24:40.464Z,15.38
2023-05-19T18:27:08.358Z,15.30
2023-05-19T18:29:35.710Z,15.24
2023-05-19T18:32:03.429Z,15.15
2023-05-19T18:34:32.217Z,15.08
2023-05-19T18:36:59.576Z,15.00
2023-05-19T18:39:29.166Z,14.95
2023-05-19T18:41:56.976Z,14.93
2023-05-19T18:44:24.408Z,14.89
2023-05-19T18:46:52.027Z,14.84
2023-05-19T18:49:20.073Z,14.79
2023-05-19T18:51:49.859Z,14.74
2023-05-19T18:54:17.493Z,14.72
2023-05-19T18:56:45.021Z,14.69
2023-05-19T18:59:13.882Z,14.65
2023-05-19T19:01:41.498Z,14.61
2023-05-19T19:04:09.203Z,14.58
2023-05-19T19:06:36.662Z,14.52
2023-05-19T19:09:05.944Z,14.49
2023-05-19T19:11:33.280Z,14.45
2023-05-19T19:14:01.618Z,14.37
2023-05-19T19:16:29.325Z,14.30
2023-05-19T19:18:56.933Z,14.26
2023-05-19T19:21:24.584Z,14.24
2023-05-19T19:23:53.857Z,14.18
2023-05-19T19:26:24.115Z,14.19
2023-05-19T19:28:51.504Z,14.14
2023-05-19T19:31:18.885Z,14.10
2023-05-19T19:33:46.609Z,14.07
2023-05-19T19:36:14.030Z,14.08
2023-05-19T19:38:41.436Z,14.04
2023-05-19T19:41:08.859Z,13.98
2023-05-19T19:43:37.664Z,13.92
2023-05-19T19:46:07.165Z,13.88
2023-05-19T19:48:35.032Z,13.81
2023-05-19T19:51:02.605Z,13.75
2023-05-19T19:53:30.056Z,13.70
2023-05-19T19:55:58.403Z,13.63
2023-05-19T19:58:26.833Z,13.55
2023-05-19T20:00:59.531Z,13.54
2023-05-19T20:03:27.927Z,13.49
2023-05-19T20:05:59.432Z,13.48
2023-05-19T20:08:27.193Z,13.44
2023-05-19T20:10:54.679Z,13.38
2023-05-19T20:13:22.083Z,13.34
2023-05-19T20:15:49.802Z,13.30
2023-05-19T20:18:18.646Z,13.25
2023-05-19T20:20:45.976Z,13.20
2023-05-19T20:23:13.527Z,13.19
2023-05-19T20:25:53.662Z,13.13
2023-05-19T20:28:29.652Z,13.07
2023-05-19T20:30:57.065Z,13.01
2023-05-19T20:33:26.035Z,12.94
2023-05-19T20:35:53.436Z,12.90
2023-05-19T20:38:20.915Z,12.88
2023-05-19T20:40:48.781Z,12.82
2023-05-19T20:43:16.314Z,12.77
2023-05-19T20:45:44.565Z,12.71
2023-05-19T20:48:12.380Z,12.66
2023-05-19T20:50:41.645Z,12.62
2023-05-19T20:53:09.099Z,12.58
2023-05-19T20:55:38.005Z,12.53
2023-05-19T20:58:05.702Z,12.52
2023-05-19T21:00:33.768Z,12.45
2023-05-19T21:03:03.790Z,12.42
2023-05-19T21:05:31.838Z,12.40
2023-05-19T21:08:01.244Z,12.38
2023-05-19T21:10:28.681Z,12.33
2023-05-19T21:12:58.511Z,12.33
2023-05-19T21:15:27.117Z,12.33
2023-05-19T21:17:54.564Z,12.32
2023-05-19T21:20:22.263Z,12.27
2023-05-19T21:22:49.669Z,12.22
2023-05-19T21:25:18.682Z,12.23
2023-05-19T21:27:47.629Z,12.23
2023-05-19T21:30:14.962Z,12.21
2023-05-19T21:32:42.361Z,12.16
2023-05-19T21:35:09.858Z,12.11
2023-05-19T21:37:37.421Z,12.08
2023-05-19T21:40:05.842Z,12.05
2023-05-19T21:42:34.797Z,12.00
2023-05-19T21:45:02.619Z,11.97
2023-05-19T21:47:33.942Z,11.92
2023-05-19T21:50:01.266Z,11.88
2023-05-19T21:52:31.999Z,11.86
2023-05-19T21:54:59.519Z,11.86
2023-05-19T21:57:26.929Z,11.84
2023-05-19T21:59:55.811Z,11.82
2023-05-19T22:02:23.111Z,11.82
2023-05-19T22:04:50.958Z,11.80
2023-05-19T22:07:18.468Z,11.82
2023-05-19T22:09:48.192Z,11.80
2023-05-19T22:12:16.223Z,11.77
2023-05-19T22:14:43.892Z,11.73
2023-05-19T22:17:12.550Z,11.73
2023-05-19T22:19:39.911Z,11.73
2023-05-19T22:22:13.912Z,11.72
2023-05-19T22:24:42.162Z,11.70
2023-05-19T22:27:10.129Z,11.66
2023-05-19T22:29:38.965Z,11.62
2023-05-19T22:32:07.890Z,11.59
2023-05-19T22:34:36.909Z,11.57
2023-05-19T22:37:05.089Z,11.54
2023-05-19T22:39:32.768Z,11.53
2023-05-19T22:42:00.238Z,11.50
2023-05-19T22:44:27.611Z,11.49
2023-05-19T22:46:55.332Z,11.46
2023-05-19T22:49:27.512Z,11.44
2023-05-19T22:51:56.244Z,11.46
2023-05-19T22:54:23.480Z,11.41
2023-05-19T22:56:51.075Z,11.34
2023-05-19T22:59:18.582Z,11.30
2023-05-19T23:01:46.852Z,11.24
2023-05-19T23:04:14.776Z,11.20
2023-05-19T23:06:42.064Z,11.17
2023-05-19T23:09:10.820Z,11.12
2023-05-19T23:11:38.247Z,11.08
2023-05-19T23:14:05.820Z,11.05
2023-05-19T23:16:33.400Z,11.01
2023-05-19T23:19:01.095Z,10.98
2023-05-19T23:21:30.123Z,10.93
2023-05-19T23:23:57.720Z,10.89
2023-05-19T23:26:27.057Z,10.87
2023-05-19T23:28:54.364Z,10.85
2023-05-19T23:31:21.768Z,10.83
2023-05-19T23:33:49.211Z,10.83
2023-05-19T23:36:16.763Z,10.86
2023-05-19T23:38:44.232Z,10.88
2023-05-19T23:41:11.664Z,10.90
2023-05-19T23:43:41.129Z,10.92
2023-05-19T23:46:08.702Z,10.93
2023-05-19T23:48:36.792Z,10.97
2023-05-19T23:51:04.302Z,10.98
2023-05-19T23:53:32.029Z,10.98
2023-05-19T23:55:59.502Z,11.00
2023-05-19T23:58:27.142Z,11.03
